Nearby METAR Reports

 

EGTE - Exeter Airport, United Kingdom
Distance from station: S 19km
Updated: 14/11/2019 19:20
Mostly cloudy
Mostly cloudy
 Wind from N
Wind: N 17 km/h
Temperature: 4°C
Wind Chill: 0°C
Dew Point: 3°C
Humidity: 93%
Barometer: 1001 hPa
Clouds: Mostly cloudy
Visibility: 8 km
Cloud details: Mostly cloudy 366 m
2019/11/14 19:20 EGTE 141920Z 01009KT 340V050 8000 BKN012 04/03 Q1001
EGDY - Yeovilton (navy), United Kingdom
Distance from station: ENE 55km
Updated: 14/11/2019 19:21
Mostly cloudy
Mostly cloudy
 Wind from N
Wind: N 20 km/h
Temperature: 5°C
Wind Chill: 1°C
Dew Point: 3°C
Humidity: 87%
Barometer: 1001 hPa
Clouds: Mostly cloudy
Visibility: 10 km
Cloud details: Partly cloudy 610 m
Mostly cloudy 1219 m
2019/11/14 19:21 EGDY 141921Z 36011KT 9999 SCT020 BKN040 05/03 Q1001 NOSIG RMK WHT WHT
 
EGFF - Cardiff-Wales Ar, United Kingdom
Distance from station: N 56km
Updated: 14/11/2019 19:20
Mostly cloudy
Mostly cloudy
 Wind from NE
Wind: NE 26 km/h
Temperature: 4°C
Wind Chill: -1°C
Dew Point: 3°C
Humidity: 93%
Barometer: 1002 hPa
Clouds: Mostly cloudy
Visibility: 10 km
Cloud details: Mostly cloudy 945 m
2019/11/14 19:20 EGFF 141920Z AUTO 04014KT 9999 BKN031 04/03 Q1002
EGDX - St Athan Raf, United Kingdom
Distance from station: N 58km
Updated: 01/04/2019 13:50
NOT Current
Clear
Clear
 Wind from E
Wind: E 15 km/h
Temperature: 11°C
Dew Point: 5°C
Humidity: 67%
Barometer: 1019 hPa
Clouds: Clear
Visibility: 10 km
2019/04/01 12:50 EGDX 011250Z AUTO 10008KT 9999 NCD 11/05 Q1019
 
EGGD - Bristol/Lulsgate, United Kingdom
Distance from station: NE 71km
Updated: 14/11/2019 19:20
Overcast
Overcast
 Wind from N
Wind: N 20 km/h
Temperature: 2°C
Wind Chill: -3°C
Dew Point: 2°C
Humidity: 100%
Barometer: 1002 hPa
Clouds: Overcast
Visibility: 10 km
Cloud details: Overcast 61 m
2019/11/14 19:20 EGGD 141920Z AUTO 01011KT 9999 OVC002 02/02 Q1002